createdAt,value
2022-07-26T00:01:25.933Z,28.90
2022-07-26T00:04:00.462Z,28.90
2022-07-26T00:06:29.309Z,28.90
2022-07-26T00:08:57.729Z,28.90
2022-07-26T00:11:27.215Z,28.90
2022-07-26T00:13:57.110Z,28.90
2022-07-26T00:16:25.863Z,28.90
2022-07-26T00:18:54.426Z,28.90
2022-07-26T00:21:23.007Z,28.90
2022-07-26T00:23:51.724Z,29.00
2022-07-26T00:26:20.237Z,28.90
2022-07-26T00:28:48.613Z,29.00
2022-07-26T00:31:18.903Z,28.90
2022-07-26T00:33:47.337Z,29.00
2022-07-26T00:36:15.868Z,28.90
2022-07-26T00:38:44.280Z,28.90
2022-07-26T00:41:12.712Z,28.90
2022-07-26T00:43:55.797Z,28.90
2022-07-26T00:46:26.096Z,28.90
2022-07-26T00:48:55.080Z,28.80
2022-07-26T00:51:24.002Z,28.80
2022-07-26T00:53:52.719Z,28.80
2022-07-26T00:56:22.227Z,28.80
2022-07-26T00:58:50.489Z,28.70
2022-07-26T01:01:18.903Z,28.80
2022-07-26T01:03:53.218Z,28.70
2022-07-26T01:06:26.941Z,28.70
2022-07-26T01:08:56.287Z,28.70
2022-07-26T01:11:24.546Z,28.70
2022-07-26T01:13:53.273Z,28.70
2022-07-26T01:16:21.849Z,28.70
2022-07-26T01:18:51.638Z,28.60
2022-07-26T01:21:21.980Z,28.60
2022-07-26T01:23:51.617Z,28.60
2022-07-26T01:26:19.863Z,28.70
2022-07-26T01:28:49.496Z,28.60
2022-07-26T01:31:18.423Z,28.50
2022-07-26T01:33:46.919Z,28.40
2022-07-26T01:36:15.362Z,28.30
2022-07-26T01:38:43.796Z,28.20
2022-07-26T01:41:13.893Z,28.10
2022-07-26T01:43:42.245Z,28.00
2022-07-26T01:51:10.722Z,28.00
2022-07-26T01:53:38.911Z,27.70
2022-07-26T01:56:07.664Z,27.60
2022-07-26T01:58:37.337Z,27.60
2022-07-26T02:01:05.577Z,27.60
2022-07-26T02:03:33.925Z,27.50
2022-07-26T02:06:02.411Z,27.40
2022-07-26T02:08:30.638Z,27.40
2022-07-26T02:11:03.785Z,27.40
2022-07-26T02:13:35.670Z,27.30
2022-07-26T07:28:00.419Z,27.30
2022-07-26T07:30:29.301Z,26.00
2022-07-26T07:32:57.579Z,26.10
2022-07-26T07:35:31.954Z,26.10
2022-07-26T07:38:01.123Z,26.10
2022-07-26T07:40:30.615Z,26.10
2022-07-26T07:42:59.315Z,26.10
2022-07-26T07:45:27.616Z,26.20
2022-07-26T07:47:55.982Z,26.20
2022-07-26T07:50:27.217Z,26.20
2022-07-26T07:52:59.262Z,26.20
2022-07-26T07:55:43.897Z,26.20
2022-07-26T07:58:15.738Z,26.20
2022-07-26T08:00:45.806Z,26.30
2022-07-26T08:03:17.824Z,26.30
2022-07-26T08:05:47.272Z,26.30
2022-07-26T08:08:22.058Z,26.30
2022-07-26T08:10:52.254Z,26.30
2022-07-26T08:13:21.102Z,26.30
2022-07-26T08:15:50.380Z,26.30
2022-07-26T08:18:22.288Z,26.30
2022-07-26T08:20:52.871Z,26.30
2022-07-26T08:23:23.715Z,26.40
2022-07-26T08:25:57.909Z,26.40
2022-07-26T08:28:46.884Z,26.40
2022-07-26T08:31:16.384Z,26.40
2022-07-26T08:33:46.430Z,26.40
2022-07-26T08:36:15.776Z,26.40
2022-07-26T08:38:47.461Z,26.40
2022-07-26T08:41:17.094Z,26.50
2022-07-26T08:43:52.654Z,26.40
2022-07-26T08:46:26.986Z,26.30
2022-07-26T08:48:57.104Z,26.30
2022-07-26T08:51:26.898Z,26.20
2022-07-26T08:54:05.283Z,26.10
2022-07-26T08:56:35.944Z,26.10
2022-07-26T08:59:06.837Z,26.20
2022-07-26T09:01:35.751Z,26.30
2022-07-26T09:04:31.195Z,26.40
2022-07-26T09:07:04.096Z,26.60
2022-07-26T09:09:35.405Z,26.70
2022-07-26T09:12:17.673Z,26.90
2022-07-26T09:14:47.547Z,27.00
2022-07-26T09:17:17.368Z,27.10
2022-07-26T09:19:46.613Z,27.20
2022-07-26T09:22:16.582Z,27.40
2022-07-26T09:24:48.437Z,27.50
2022-07-26T09:27:18.833Z,27.60
2022-07-26T09:29:49.185Z,27.70
2022-07-26T09:32:20.324Z,27.80
2022-07-26T09:34:58.852Z,27.80
2022-07-26T09:37:38.004Z,27.90
2022-07-26T09:40:12.790Z,27.90
2022-07-26T09:42:55.501Z,28.00
2022-07-26T09:45:23.908Z,28.10
2022-07-26T09:47:52.193Z,28.10
2022-07-26T09:50:22.776Z,28.20
2022-07-26T09:53:07.948Z,28.20
2022-07-26T09:55:55.728Z,28.30
2022-07-26T09:58:25.132Z,28.30
2022-07-26T10:00:54.854Z,28.30
2022-07-26T10:03:25.990Z,28.30
2022-07-26T10:05:55.011Z,28.30
2022-07-26T10:08:23.664Z,28.30
2022-07-26T10:10:57.213Z,28.30
2022-07-26T10:13:28.553Z,28.30
2022-07-26T10:15:57.967Z,28.30
2022-07-26T10:18:50.332Z,28.20
2022-07-26T10:21:23.924Z,28.30
2022-07-26T10:23:53.976Z,28.40
2022-07-26T10:26:45.619Z,28.40
2022-07-26T10:29:28.193Z,28.40
2022-07-26T10:32:20.529Z,28.50
2022-07-26T10:34:49.459Z,28.40
2022-07-26T10:37:38.221Z,28.40
2022-07-26T10:40:22.605Z,28.40
2022-07-26T10:42:52.285Z,28.40
2022-07-26T10:45:23.821Z,28.30
2022-07-26T10:48:11.346Z,28.30
2022-07-26T10:50:41.087Z,28.30
2022-07-26T10:53:11.375Z,28.30
2022-07-26T10:55:54.203Z,28.20
2022-07-26T10:58:24.522Z,28.30
2022-07-26T11:00:57.945Z,28.30
2022-07-26T11:03:26.720Z,28.30
2022-07-26T11:05:54.983Z,28.40
2022-07-26T11:08:31.994Z,28.40
2022-07-26T11:11:00.205Z,28.60
2022-07-26T11:13:34.282Z,28.60
2022-07-26T11:16:04.726Z,28.70
2022-07-26T11:18:35.461Z,28.70
2022-07-26T11:21:12.547Z,28.70
2022-07-26T11:23:44.189Z,28.80
2022-07-26T11:26:15.358Z,28.90
2022-07-26T11:29:06.604Z,28.90
2022-07-26T11:31:51.376Z,28.90
2022-07-26T11:34:29.764Z,28.90
2022-07-26T11:36:59.521Z,28.90
2022-07-26T11:39:29.722Z,28.80
2022-07-26T11:41:59.878Z,28.80
2022-07-26T11:44:30.670Z,28.70
2022-07-26T11:46:59.103Z,28.70
2022-07-26T11:50:00.207Z,28.70
2022-07-26T11:52:24.408Z,28.60
2022-07-26T11:54:54.483Z,28.50
2022-07-26T11:57:22.843Z,28.40
2022-07-26T11:59:52.585Z,28.40
2022-07-26T12:02:22.664Z,28.30
2022-07-26T12:04:51.156Z,28.20
2022-07-26T12:07:21.513Z,28.20
2022-07-26T12:09:51.256Z,28.20
2022-07-26T12:12:23.780Z,28.10
2022-07-26T12:15:00.139Z,28.10
2022-07-26T12:17:35.065Z,28.20
2022-07-26T12:20:14.759Z,28.10
2022-07-26T12:22:54.992Z,28.10
2022-07-26T12:25:28.135Z,28.10
2022-07-26T12:27:56.996Z,28.10
2022-07-26T12:30:30.754Z,28.10
2022-07-26T12:33:03.225Z,28.20
2022-07-26T12:35:35.286Z,28.20
2022-07-26T12:38:04.712Z,28.20
2022-07-26T12:40:41.697Z,28.20
2022-07-26T12:43:10.175Z,28.20
2022-07-26T12:45:39.819Z,28.10
2022-07-26T12:48:11.078Z,28.10
2022-07-26T12:50:39.542Z,28.10
2022-07-26T12:53:12.500Z,28.10
2022-07-26T12:55:41.386Z,28.10
2022-07-26T12:58:09.994Z,28.10
2022-07-26T13:00:39.671Z,28.10
2022-07-26T13:03:08.297Z,28.20
2022-07-26T13:05:36.606Z,28.20
2022-07-26T13:08:05.115Z,28.30
2022-07-26T13:10:34.986Z,28.40
2022-07-26T13:13:05.024Z,28.40
2022-07-26T13:15:36.804Z,28.40
2022-07-26T13:18:08.781Z,28.50
2022-07-26T13:20:38.823Z,28.60
2022-07-26T13:23:11.695Z,28.60
2022-07-26T13:25:43.092Z,28.60
2022-07-26T13:28:11.418Z,28.70
2022-07-26T13:30:42.997Z,28.70
2022-07-26T13:33:13.425Z,28.80
2022-07-26T13:35:42.686Z,28.90
2022-07-26T13:38:11.551Z,29.00
2022-07-26T13:40:39.778Z,29.00
2022-07-26T13:43:08.032Z,29.10
2022-07-26T13:45:36.302Z,29.10
2022-07-26T13:48:04.843Z,29.10
2022-07-26T13:50:34.755Z,29.20
2022-07-26T13:53:05.953Z,29.20
2022-07-26T13:55:34.186Z,29.30
2022-07-26T13:58:09.231Z,29.30
2022-07-26T14:00:38.357Z,29.40
2022-07-26T14:03:06.853Z,29.50
2022-07-26T14:05:36.554Z,29.50
2022-07-26T14:08:05.188Z,29.60
2022-07-26T14:10:37.381Z,29.60
2022-07-26T14:13:05.735Z,29.60
2022-07-26T14:15:34.313Z,29.70
2022-07-26T14:18:03.643Z,29.70
2022-07-26T14:20:32.143Z,29.70
2022-07-26T14:23:02.086Z,29.80
2022-07-26T14:25:33.315Z,29.90
2022-07-26T14:28:01.740Z,29.90
2022-07-26T14:30:30.154Z,30.00
2022-07-26T14:32:58.462Z,30.10
2022-07-26T14:35:26.861Z,30.00
2022-07-26T14:37:55.132Z,30.10
2022-07-26T14:40:24.850Z,30.10
2022-07-26T14:42:53.543Z,30.10
2022-07-26T14:45:21.812Z,30.10
2022-07-26T14:47:50.366Z,30.10
2022-07-26T14:50:18.608Z,30.20
2022-07-26T14:52:48.935Z,30.10
2022-07-26T14:55:23.102Z,30.20
2022-07-26T14:57:55.504Z,30.20
2022-07-26T15:00:23.741Z,30.20
2022-07-26T15:02:52.896Z,30.20
2022-07-26T15:05:23.484Z,30.30
2022-07-26T15:07:51.930Z,30.30
2022-07-26T15:10:29.223Z,30.40
2022-07-26T15:12:59.623Z,30.40
2022-07-26T15:15:27.925Z,30.40
2022-07-26T15:17:56.788Z,30.40
2022-07-26T15:20:25.730Z,30.40
2022-07-26T15:22:54.780Z,30.40
2022-07-26T15:25:24.140Z,30.40
2022-07-26T15:27:52.499Z,30.50
2022-07-26T15:30:22.260Z,30.50
2022-07-26T15:32:54.623Z,30.40
2022-07-26T15:35:22.863Z,30.40
2022-07-26T15:37:51.151Z,30.40
2022-07-26T15:40:20.830Z,30.40
2022-07-26T15:42:52.217Z,30.30
2022-07-26T15:45:23.202Z,30.30
2022-07-26T15:47:57.409Z,30.30
2022-07-26T15:50:29.804Z,30.30
2022-07-26T15:52:58.087Z,30.30
2022-07-26T15:55:26.327Z,30.30
2022-07-26T15:57:55.100Z,30.30
2022-07-26T16:00:24.924Z,30.40
2022-07-26T16:02:53.613Z,30.40
2022-07-26T16:05:22.352Z,30.40
2022-07-26T16:07:50.633Z,30.40
2022-07-26T16:10:18.875Z,30.50
2022-07-26T16:12:47.184Z,30.50
2022-07-26T16:15:15.398Z,30.50
2022-07-26T16:17:44.991Z,30.50
2022-07-26T16:20:13.412Z,30.50
2022-07-26T16:22:42.079Z,30.50
2022-07-26T16:25:13.711Z,30.50
2022-07-26T16:27:44.828Z,30.50
2022-07-26T16:30:14.638Z,30.50
2022-07-26T16:32:44.628Z,30.50
2022-07-26T16:35:13.469Z,30.50
2022-07-26T16:37:42.254Z,30.50
2022-07-26T16:40:11.941Z,30.50
2022-07-26T16:42:40.203Z,30.50
2022-07-26T16:45:09.981Z,30.50
2022-07-26T16:47:38.252Z,30.40
2022-07-26T16:50:09.051Z,30.40
2022-07-26T16:52:37.416Z,30.40
2022-07-26T16:55:10.673Z,30.30
2022-07-26T16:57:39.584Z,30.30
2022-07-26T17:00:10.646Z,30.30
2022-07-26T17:02:39.863Z,30.30
2022-07-26T17:05:10.898Z,30.30
2022-07-26T17:07:39.151Z,30.30
2022-07-26T17:10:10.072Z,30.20
2022-07-26T17:12:38.804Z,30.20
2022-07-26T17:15:09.794Z,30.20
2022-07-26T17:17:38.208Z,30.20
2022-07-26T17:20:08.077Z,30.20
2022-07-26T17:22:37.876Z,30.20
2022-07-26T17:25:08.023Z,30.20
2022-07-26T17:27:36.552Z,30.10
2022-07-26T17:30:07.043Z,30.10
2022-07-26T17:32:36.235Z,30.20
2022-07-26T17:35:05.059Z,30.10
2022-07-26T17:37:35.004Z,30.10
2022-07-26T17:40:08.008Z,30.10
2022-07-26T17:42:36.692Z,30.00
2022-07-26T17:45:05.756Z,29.90
2022-07-26T17:47:34.805Z,29.90
2022-07-26T17:52:53.415Z,29.70
2022-07-26T17:55:23.588Z,29.70
2022-07-26T17:57:52.274Z,29.60
2022-07-26T18:00:22.863Z,29.50
2022-07-26T18:02:51.424Z,29.40
2022-07-26T18:05:20.647Z,29.40
2022-07-26T18:07:51.532Z,29.30
2022-07-26T18:10:19.793Z,29.20
2022-07-26T18:12:49.449Z,29.20
2022-07-26T18:15:17.664Z,29.10
2022-07-26T18:17:45.856Z,29.10
2022-07-26T18:20:14.316Z,29.00
2022-07-26T18:22:42.535Z,29.00
2022-07-26T18:25:15.725Z,28.90
2022-07-26T18:27:44.011Z,28.90
2022-07-26T18:30:14.012Z,28.90
2022-07-26T18:32:42.187Z,28.70
2022-07-26T18:35:10.803Z,28.80
2022-07-26T18:37:39.040Z,28.70
2022-07-26T18:40:09.130Z,28.60
2022-07-26T18:42:37.928Z,28.50
2022-07-26T18:45:07.434Z,28.50
2022-07-26T18:47:37.087Z,28.50
2022-07-26T18:50:06.337Z,28.50
2022-07-26T18:52:34.599Z,28.40
2022-07-26T18:55:06.860Z,28.40
2022-07-26T18:57:35.947Z,28.40
2022-07-26T19:00:05.082Z,28.40
2022-07-26T19:02:33.296Z,28.30
2022-07-26T19:05:03.053Z,28.30
2022-07-26T19:07:31.769Z,28.20
2022-07-26T19:10:00.136Z,28.20
2022-07-26T19:12:29.309Z,28.10
2022-07-26T19:14:59.894Z,28.10
2022-07-26T19:17:32.777Z,28.00
2022-07-26T19:20:02.907Z,28.00
2022-07-26T19:22:31.800Z,27.90
2022-07-26T19:27:29.137Z,27.90
2022-07-26T19:29:57.867Z,27.70
2022-07-26T19:32:31.752Z,27.70
2022-07-26T19:35:03.824Z,27.70
2022-07-26T19:37:32.167Z,27.60
2022-07-26T19:40:01.260Z,27.60
2022-07-26T19:42:34.023Z,27.60
2022-07-26T19:45:02.234Z,27.60
2022-07-26T19:47:30.790Z,27.50
2022-07-26T19:49:59.212Z,27.50
2022-07-26T19:52:29.154Z,27.50
2022-07-26T19:54:57.397Z,27.40
2022-07-26T19:57:25.961Z,27.30
